Time;durP1;ratioP1;P1;durP2;ratioP2;P2;SDS_P1;SDS_P2;PMS_P1;PMS_P2;Temp;Humidity;BMP_temperature;BMP_pressure;BME280_temperature;BME280_humidity;BME280_pressure;Samples;Min_cycle;Max_cycle;Signal;HPM_P1;HPM_P2
2021/08/17 00:01:23;;;;;;;7.97;6.58;;;;;;;22.05;59.04;99154.91;1669967;83;21364;-62
2021/08/17 00:03:50;;;;;;;13.35;8.10;;;;;;;22.06;59.13;99150.28;1677056;83;21494;-61
2021/08/17 00:06:16;;;;;;;8.78;7.87;;;;;;;22.07;59.11;99150.13;1676107;83;22280;-60
2021/08/17 00:08:45;;;;;;;8.65;7.80;;;;;;;22.07;59.25;99147.39;1671402;83;21101;-59
2021/08/17 00:11:13;;;;;;;9.98;7.62;;;;;;;22.07;59.23;99144.64;1676020;83;21009;-62
2021/08/17 00:13:42;;;;;;;7.50;6.80;;;;;;;22.08;59.21;99144.14;1710904;81;21175;-64
2021/08/17 00:16:08;;;;;;;10.45;8.50;;;;;;;22.07;59.15;99151.50;1711932;81;21057;-62
2021/08/17 00:18:36;;;;;;;8.90;7.65;;;;;;;22.06;59.19;99147.55;1710987;81;21192;-61
2021/08/17 00:21:03;;;;;;;9.33;7.62;;;;;;;22.05;59.20;99147.19;1710980;81;21066;-62
2021/08/17 00:23:31;;;;;;;10.18;8.13;;;;;;;22.02;59.30;99149.77;1715577;80;21117;-64
2021/08/17 00:25:59;;;;;;;10.32;9.00;;;;;;;21.99;59.33;99147.34;1723574;80;21057;-59
2021/08/17 00:28:27;;;;;;;9.83;7.20;;;;;;;21.97;59.49;99154.85;1726764;80;21076;-61
2021/08/17 00:30:55;;;;;;;11.28;7.33;;;;;;;21.94;59.51;99152.42;1728808;80;21109;-64
2021/08/17 00:33:21;;;;;;;10.82;7.28;;;;;;;21.91;59.61;99152.73;1726209;80;21587;-61
2021/08/17 00:35:47;;;;;;;11.78;8.10;;;;;;;21.87;59.78;99154.91;1728371;80;21539;-59
2021/08/17 00:38:13;;;;;;;12.78;8.43;;;;;;;21.82;59.87;99143.59;1734682;80;21101;-62
2021/08/17 00:40:40;;;;;;;11.53;7.03;;;;;;;21.78;59.94;99147.65;1735358;80;21045;-61
2021/08/17 00:43:10;;;;;;;8.15;7.17;;;;;;;21.77;60.02;99150.06;1729176;80;21062;-62
2021/08/17 00:45:36;;;;;;;9.18;6.60;;;;;;;21.75;60.17;99153.47;1728053;80;21386;-60
2021/08/17 00:48:03;;;;;;;11.73;8.05;;;;;;;21.75;60.32;99147.13;1732387;80;21050;-62
2021/08/17 00:50:34;;;;;;;8.95;7.85;;;;;;;21.76;60.43;99146.11;1730420;80;21141;-62
2021/08/17 00:53:00;;;;;;;10.23;8.08;;;;;;;21.76;60.43;99148.85;1726075;80;21676;-58
2021/08/17 00:55:27;;;;;;;9.43;7.75;;;;;;;21.76;60.34;99144.23;1670266;83;21131;-59
2021/08/17 00:57:55;;;;;;;13.10;7.33;;;;;;;21.77;60.31;99149.20;1731814;80;21366;-59
2021/08/17 01:00:21;;;;;;;14.55;7.25;;;;;;;21.76;60.35;99151.09;1727271;80;21104;-59
2021/08/17 01:02:48;;;;;;;10.20;7.87;;;;;;;21.76;60.39;99148.34;1724992;80;20943;-64
2021/08/17 01:05:16;;;;;;;10.98;7.70;;;;;;;21.75;60.46;99149.87;1728902;80;21500;-62
2021/08/17 01:07:43;;;;;;;9.70;6.90;;;;;;;21.74;60.49;99150.88;1726428;80;21080;-60
2021/08/17 01:10:11;;;;;;;11.40;8.48;;;;;;;21.70;60.61;99151.70;1729804;80;21081;-59
2021/08/17 01:12:38;;;;;;;9.58;8.28;;;;;;;21.69;60.70;99147.23;1720505;80;21120;-58
2021/08/17 01:15:07;;;;;;;9.35;7.72;;;;;;;21.65;60.70;99147.73;1731307;80;21402;-60
2021/08/17 01:17:35;;;;;;;10.95;7.75;;;;;;;21.63;60.86;99147.02;1726846;80;21586;-61
2021/08/17 01:20:01;;;;;;;9.60;7.83;;;;;;;21.61;60.94;99154.02;1723131;80;21057;-61
2021/08/17 01:22:27;;;;;;;15.05;7.53;;;;;;;21.60;61.00;99144.61;1727427;80;21097;-59
2021/08/17 01:24:55;;;;;;;11.30;7.92;;;;;;;21.61;61.10;99153.16;1725066;80;21581;-61
2021/08/17 01:27:21;;;;;;;12.78;9.40;;;;;;;21.61;61.16;99152.64;1714545;81;22353;-62
2021/08/17 01:29:48;;;;;;;9.60;7.95;;;;;;;21.60;61.26;99149.59;1705330;81;21082;-60
2021/08/17 01:32:18;;;;;;;13.70;9.03;;;;;;;21.61;61.25;99148.53;1709450;81;21133;-60
2021/08/17 01:34:44;;;;;;;10.48;9.48;;;;;;;21.61;61.23;99147.67;1698129;81;21210;-61
2021/08/17 01:37:12;;;;;;;10.72;9.35;;;;;;;21.61;61.18;99150.41;1714098;81;21061;-58
2021/08/17 01:39:39;;;;;;;13.72;9.88;;;;;;;21.59;61.24;99149.23;1710145;82;22830;-59
2021/08/17 01:42:05;;;;;;;10.98;9.78;;;;;;;21.56;61.30;99146.80;1710919;81;21087;-59
2021/08/17 01:44:31;;;;;;;16.50;9.13;;;;;;;21.55;61.35;99149.18;1713077;81;21078;-61
2021/08/17 01:46:58;;;;;;;14.35;9.78;;;;;;;21.54;61.42;99143.34;1713611;81;21112;-59
2021/08/17 01:49:25;;;;;;;15.53;9.40;;;;;;;21.51;61.48;99146.42;1715739;81;21061;-61
2021/08/17 01:51:52;;;;;;;10.35;8.23;;;;;;;21.47;61.51;99144.50;1709228;81;21097;-55
2021/08/17 01:54:19;;;;;;;11.33;9.38;;;;;;;21.46;61.70;99148.25;1711997;81;21070;-56
2021/08/17 01:56:47;;;;;;;12.23;8.45;;;;;;;21.46;61.73;99142.77;1710785;81;21438;-57
2021/08/17 01:59:14;;;;;;;14.13;9.20;;;;;;;21.46;61.79;99145.51;1715358;81;21531;-54
2021/08/17 02:01:42;;;;;;;12.47;9.53;;;;;;;21.46;61.83;99144.14;1724170;81;21152;-56
2021/08/17 02:04:08;;;;;;;13.15;10.30;;;;;;;21.47;61.81;99143.63;1716260;81;21127;-56
2021/08/17 02:06:35;;;;;;;16.52;9.88;;;;;;;21.47;61.77;99137.66;1721721;81;20868;-56
2021/08/17 02:09:02;;;;;;;15.85;9.78;;;;;;;21.47;61.82;99134.91;1711985;81;20983;-56
2021/08/17 02:11:28;;;;;;;12.68;10.20;;;;;;;21.49;61.81;99140.23;1717405;81;20892;-56
2021/08/17 02:13:55;;;;;;;14.30;10.43;;;;;;;21.45;61.80;99135.57;1718997;81;21023;-57
2021/08/17 02:16:23;;;;;;;14.50;9.93;;;;;;;21.43;61.81;99136.27;1715217;81;20883;-55
2021/08/17 02:18:51;;;;;;;19.45;11.08;;;;;;;21.42;61.88;99128.20;1719254;81;20888;-55
2021/08/17 02:21:19;;;;;;;14.75;9.90;;;;;;;21.39;61.97;99127.14;1719750;81;20860;-56
2021/08/17 02:23:45;;;;;;;14.60;10.78;;;;;;;21.35;62.01;99123.01;1716427;81;20927;-58
2021/08/17 02:26:11;;;;;;;11.05;8.78;;;;;;;21.34;62.12;99127.62;1730406;80;20962;-56
2021/08/17 02:28:38;;;;;;;9.98;8.68;;;;;;;21.34;62.19;99125.39;1739465;80;21806;-55
2021/08/17 02:31:05;;;;;;;14.87;10.43;;;;;;;21.34;62.28;99129.50;1730981;80;21322;-58
2021/08/17 02:33:31;;;;;;;11.10;9.90;;;;;;;21.34;62.28;99120.78;1727304;80;21531;-55
2021/08/17 02:35:57;;;;;;;13.43;8.20;;;;;;;21.34;62.34;99121.28;1736729;80;20899;-56
2021/08/17 02:38:24;;;;;;;13.48;9.70;;;;;;;21.34;62.25;99119.92;1737727;80;20958;-56
2021/08/17 02:40:50;;;;;;;10.40;8.88;;;;;;;21.33;62.19;99120.42;1727955;80;21683;-56
2021/08/17 02:43:23;;;;;;;14.93;10.55;;;;;;;21.32;62.20;99118.70;1725597;80;21132;-56
2021/08/17 02:45:46;;;;;;;12.18;10.00;;;;;;;21.31;62.17;99121.08;1724098;80;21091;-57
2021/08/17 02:48:12;;;;;;;13.13;10.55;;;;;;;21.29;62.21;99116.77;1727204;80;21144;-57
2021/08/17 02:50:39;;;;;;;11.90;10.55;;;;;;;21.26;62.25;99119.84;1723276;81;21148;-57
2021/08/17 02:53:07;;;;;;;13.35;10.88;;;;;;;21.22;62.34;99118.42;1727737;80;21085;-55
2021/08/17 02:55:33;;;;;;;13.35;9.18;;;;;;;21.20;62.41;99119.08;1730859;80;21101;-55
2021/08/17 02:58:06;;;;;;;11.15;8.53;;;;;;;21.17;62.48;99115.27;1727944;80;21140;-56
2021/08/17 03:02:28;;;;;;;11.22;8.95;;;;;;;21.19;62.63;99115.48;1774551;78;28242;-53
2021/08/17 03:04:54;;;;;;;13.83;9.90;;;;;;;21.13;62.66;99115.58;1745682;80;21001;-53
2021/08/17 03:07:22;;;;;;;9.88;8.83;;;;;;;21.14;62.66;99113.20;1735288;80;21151;-54
2021/08/17 03:09:49;;;;;;;10.50;9.38;;;;;;;21.15;62.67;99115.42;1737723;80;21216;-57
2021/08/17 03:12:15;;;;;;;11.70;9.75;;;;;;;21.15;62.67;99116.29;1741449;80;20968;-56
2021/08/17 03:14:43;;;;;;;10.08;8.70;;;;;;;21.15;62.67;99108.58;1754902;80;21038;-58
2021/08/17 03:17:09;;;;;;;16.37;10.38;;;;;;;21.15;62.65;99108.58;1737739;80;21062;-57
2021/08/17 03:19:35;;;;;;;15.68;9.88;;;;;;;21.13;62.65;99111.97;1738715;80;22491;-58
2021/08/17 03:22:02;;;;;;;12.23;10.03;;;;;;;21.11;62.71;99106.66;1741255;80;21262;-56
2021/08/17 03:24:29;;;;;;;14.55;9.13;;;;;;;21.11;62.78;99106.66;1739776;80;21036;-55
2021/08/17 03:26:56;;;;;;;9.03;8.13;;;;;;;21.11;62.83;99106.66;1737168;80;21398;-57
2021/08/17 03:29:22;;;;;;;13.05;8.33;;;;;;;21.13;62.83;99110.61;1738854;80;21436;-55
2021/08/17 03:31:49;;;;;;;8.60;7.70;;;;;;;21.15;62.89;99107.21;1738888;80;22269;-55
2021/08/17 03:34:15;;;;;;;13.22;9.70;;;;;;;21.17;62.93;99105.70;1721424;80;21465;-56
2021/08/17 03:36:42;;;;;;;12.18;8.75;;;;;;;21.19;62.96;99102.30;1722889;80;21091;-58
2021/08/17 03:39:09;;;;;;;14.47;8.88;;;;;;;21.22;62.89;99100.63;1720074;80;21084;-56
2021/08/17 03:41:35;;;;;;;12.82;9.63;;;;;;;21.25;62.83;99101.70;1722933;80;21322;-56
2021/08/17 03:44:02;;;;;;;13.40;8.95;;;;;;;21.25;62.76;99101.19;1722410;80;21531;-56
2021/08/17 03:46:28;;;;;;;11.65;8.28;;;;;;;21.26;62.76;99108.39;1722950;80;21081;-58
2021/08/17 03:48:54;;;;;;;9.83;8.43;;;;;;;21.28;62.70;99108.20;1728689;80;21085;-57
2021/08/17 03:51:21;;;;;;;11.35;8.70;;;;;;;21.27;62.77;99110.59;1732150;80;21455;-56
2021/08/17 03:53:48;;;;;;;9.00;8.18;;;;;;;21.27;62.90;99109.22;1724994;80;21117;-56
2021/08/17 03:56:16;;;;;;;9.93;7.40;;;;;;;21.28;62.95;99112.31;1736262;80;21045;-56
2021/08/17 03:58:42;;;;;;;10.40;9.00;;;;;;;21.31;63.02;99114.74;1682805;83;21104;-55
2021/08/17 04:01:08;;;;;;;9.43;8.55;;;;;;;21.34;63.12;99111.70;1692814;82;21079;-55
2021/08/17 04:03:36;;;;;;;9.68;7.87;;;;;;;21.38;63.23;99111.72;1702114;83;21052;-56
2021/08/17 04:06:03;;;;;;;10.38;8.38;;;;;;;21.41;63.23;99105.44;1699068;83;21103;-55
2021/08/17 04:08:30;;;;;;;11.68;8.58;;;;;;;21.47;63.25;99102.56;1682520;83;21168;-55
2021/08/17 04:10:58;;;;;;;10.53;7.92;;;;;;;21.60;63.18;99108.51;1682466;83;21067;-55
2021/08/17 04:13:26;;;;;;;9.78;8.28;;;;;;;21.78;62.91;99102.45;1682520;83;21064;-55
2021/08/17 04:15:53;;;;;;;12.40;7.90;;;;;;;22.04;62.52;99109.33;1672319;83;21064;-55
2021/08/17 04:18:19;;;;;;;15.93;9.63;;;;;;;22.23;62.09;99102.25;1689587;83;21124;-55
2021/08/17 04:20:47;;;;;;;10.23;8.15;;;;;;;22.45;61.75;99105.45;1681832;83;21005;-55
2021/08/17 04:23:13;;;;;;;14.10;9.08;;;;;;;22.66;61.09;99105.87;1710853;82;21468;-56
2021/08/17 04:25:40;;;;;;;26.02;9.68;;;;;;;22.82;60.51;99105.95;1676766;83;21052;-56
2021/08/17 04:28:06;;;;;;;12.33;7.15;;;;;;;22.91;60.08;99109.06;1687722;83;21487;-57
2021/08/17 04:30:33;;;;;;;11.78;7.95;;;;;;;22.95;59.72;99099.99;1681500;83;21578;-57
2021/08/17 04:33:00;;;;;;;9.58;7.53;;;;;;;23.00;59.38;99104.45;1715120;82;21152;-55
2021/08/17 04:35:26;;;;;;;9.25;7.25;;;;;;;23.04;59.11;99106.36;1705332;82;21131;-56
2021/08/17 04:37:53;;;;;;;10.72;7.78;;;;;;;23.05;58.86;99106.19;1673401;83;21156;-55
2021/08/17 04:40:19;;;;;;;12.45;8.80;;;;;;;23.01;58.78;99106.17;1690626;83;21473;-53
2021/08/17 04:42:45;;;;;;;7.92;6.92;;;;;;;22.97;58.76;99110.27;1676654;83;21137;-55
2021/08/17 04:45:12;;;;;;;10.23;7.47;;;;;;;22.94;59.06;99112.85;1674759;83;21088;-53
2021/08/17 04:47:49;;;;;;;12.73;7.62;;;;;;;22.91;59.13;99117.30;1689246;82;21080;-53
2021/08/17 04:50:16;;;;;;;9.78;7.03;;;;;;;22.90;59.08;99121.57;1679074;82;21592;-57
2021/08/17 04:52:43;;;;;;;22.10;11.33;;;;;;;22.86;58.98;99119.69;1683692;83;21138;-54
2021/08/17 04:55:11;;;;;;;9.50;6.85;;;;;;;22.84;60.00;99123.63;1672206;83;21065;-55
2021/08/17 04:57:54;;;;;;;12.93;7.05;;;;;;;22.83;60.60;99126.88;1689617;82;21065;-56
2021/08/17 05:00:23;;;;;;;8.95;5.80;;;;;;;22.83;60.55;99132.36;1680051;82;21577;-56
2021/08/17 05:02:50;;;;;;;66.42;14.18;;;;;;;22.86;60.88;99133.41;1707021;82;21112;-55
2021/08/17 05:05:16;;;;;;;11.95;8.60;;;;;;;22.92;60.89;99131.87;1684438;83;21096;-55
2021/08/17 05:07:45;;;;;;;9.05;7.78;;;;;;;22.98;61.28;99124.34;1684048;82;20977;-58
2021/08/17 05:10:17;;;;;;;8.33;7.00;;;;;;;23.05;61.06;99133.64;1678296;82;22022;-55
2021/08/17 05:12:44;;;;;;;12.73;8.05;;;;;;;23.10;60.69;99138.61;1687988;82;21062;-55
2021/08/17 05:15:12;;;;;;;10.55;7.60;;;;;;;23.14;60.72;99138.09;1684180;82;21661;-53
2021/08/17 05:17:38;;;;;;;9.63;6.80;;;;;;;23.21;60.98;99141.91;1687427;83;21068;-56
2021/08/17 05:20:06;;;;;;;11.00;7.20;;;;;;;23.26;60.61;99139.50;1685475;83;21085;-56
2021/08/17 05:22:33;;;;;;;11.78;6.72;;;;;;;23.32;60.87;99144.30;1684342;83;22192;-56
2021/08/17 05:25:01;;;;;;;11.48;7.80;;;;;;;23.38;61.08;99142.79;1674312;83;21807;-54
2021/08/17 05:27:29;;;;;;;20.32;7.60;;;;;;;23.45;60.99;99136.95;1683663;83;22199;-56
2021/08/17 05:29:56;;;;;;;11.45;6.62;;;;;;;23.50;60.46;99139.20;1677369;82;21085;-57
2021/08/17 05:32:23;;;;;;;10.13;6.85;;;;;;;23.56;60.05;99132.51;1676099;82;21067;-55
2021/08/17 05:34:49;;;;;;;6.87;6.28;;;;;;;23.61;59.71;99133.38;1687421;82;21073;-57
2021/08/17 05:37:16;;;;;;;8.83;6.65;;;;;;;23.67;59.78;99135.44;1681748;82;21066;-57
2021/08/17 05:39:42;;;;;;;10.60;6.92;;;;;;;23.72;59.66;99138.03;1688489;82;21319;-57
2021/08/17 05:42:10;;;;;;;12.40;6.20;;;;;;;23.79;59.71;99130.45;1675660;83;20929;-54
2021/08/17 05:44:44;;;;;;;8.95;6.85;;;;;;;23.85;59.30;99129.76;1684760;83;21550;-55
2021/08/17 05:47:12;;;;;;;6.90;6.20;;;;;;;23.93;59.36;99129.75;1683491;83;20973;-56
2021/08/17 05:49:38;;;;;;;9.85;6.37;;;;;;;24.00;58.61;99133.00;1719234;82;21360;-56
2021/08/17 05:52:06;;;;;;;13.08;6.37;;;;;;;24.06;57.95;99133.70;1709709;82;21951;-54
2021/08/17 05:54:33;;;;;;;8.83;6.95;;;;;;;24.13;57.49;99132.47;1694164;83;20922;-53
2021/08/17 05:57:02;;;;;;;8.90;5.75;;;;;;;24.19;57.73;99132.28;1683177;83;21082;-55
2021/08/17 05:59:32;;;;;;;6.47;5.85;;;;;;;24.27;57.52;99141.91;1682699;83;21326;-56
2021/08/17 06:01:59;;;;;;;19.92;7.80;;;;;;;24.34;57.43;99137.42;1681188;83;21004;-58
2021/08/17 06:04:26;;;;;;;6.65;6.15;;;;;;;24.40;56.79;99131.23;1664462;84;20918;-55
2021/08/17 06:06:52;;;;;;;9.78;5.97;;;;;;;24.48;56.64;99132.58;1686442;83;20887;-56
2021/08/17 06:09:19;;;;;;;8.55;6.50;;;;;;;24.57;56.88;99134.79;1679524;83;20927;-54
2021/08/17 06:11:48;;;;;;;9.58;6.15;;;;;;;24.64;56.20;99138.02;1679187;83;20946;-55
2021/08/17 06:14:15;;;;;;;8.78;5.80;;;;;;;24.73;56.14;99134.20;1683310;83;20973;-55
2021/08/17 06:16:43;;;;;;;10.05;6.95;;;;;;;24.81;55.95;99129.17;1681688;83;20982;-55
2021/08/17 06:19:10;;;;;;;8.55;6.60;;;;;;;24.91;55.84;99129.84;1686550;83;20986;-58
2021/08/17 06:21:37;;;;;;;11.80;5.80;;;;;;;24.99;55.31;99117.41;1686796;83;20923;-54
2021/08/17 06:24:05;;;;;;;13.72;6.05;;;;;;;25.08;55.58;99119.59;1678875;83;21003;-55
2021/08/17 06:26:32;;;;;;;10.23;6.35;;;;;;;25.16;55.54;99120.41;1679705;83;21318;-54
2021/08/17 06:28:58;;;;;;;11.65;5.42;;;;;;;25.26;55.29;99120.17;1682937;83;21062;-53
2021/08/17 06:31:25;;;;;;;10.78;4.40;;;;;;;25.34;54.75;99120.62;1680807;83;21559;-56
2021/08/17 06:33:56;;;;;;;7.92;5.10;;;;;;;25.43;54.48;99117.63;1674451;83;21547;-56
2021/08/17 06:36:23;;;;;;;11.40;4.72;;;;;;;25.49;54.32;99114.66;1680055;83;22212;-54
2021/08/17 06:38:51;;;;;;;7.42;4.78;;;;;;;25.57;54.12;99114.06;1672463;83;21048;-55
2021/08/17 06:41:17;;;;;;;11.68;6.30;;;;;;;25.62;53.51;99114.91;1672080;83;21165;-58
2021/08/17 06:43:44;;;;;;;5.67;5.12;;;;;;;25.69;53.51;99114.50;1678244;83;21311;-57
2021/08/17 06:46:11;;;;;;;6.20;4.62;;;;;;;25.75;53.41;99112.92;1676211;83;21144;-55
2021/08/17 06:48:37;;;;;;;12.78;4.70;;;;;;;25.82;52.76;99116.64;1631999;84;22617;-57
2021/08/17 06:51:04;;;;;;;6.33;4.03;;;;;;;25.89;53.05;99112.08;1679025;83;21070;-57
2021/08/17 06:53:31;;;;;;;6.25;3.87;;;;;;;25.97;53.37;99105.97;1676007;83;21058;-55
2021/08/17 06:55:57;;;;;;;7.58;4.72;;;;;;;26.04;52.27;99106.06;1680634;83;21168;-56
2021/08/17 06:58:24;;;;;;;4.33;3.95;;;;;;;26.11;51.70;99111.19;1713934;81;21125;-56
2021/08/17 07:00:50;;;;;;;7.00;3.92;;;;;;;26.20;50.83;99107.82;1724047;81;21202;-56
2021/08/17 07:03:16;;;;;;;5.33;3.70;;;;;;;26.25;50.75;99095.16;1726213;80;21645;-55
2021/08/17 07:05:46;;;;;;;7.33;3.20;;;;;;;26.34;50.65;99095.96;1725786;80;21052;-57
2021/08/17 07:08:12;;;;;;;7.97;3.20;;;;;;;26.42;49.90;99088.96;1727329;80;21318;-55
2021/08/17 07:10:39;;;;;;;6.35;2.87;;;;;;;26.52;49.71;99097.81;1727529;80;21618;-56
2021/08/17 07:13:05;;;;;;;3.62;3.08;;;;;;;26.60;49.64;99091.33;1731191;80;21517;-55
2021/08/17 07:15:32;;;;;;;6.45;3.40;;;;;;;26.68;49.41;99091.22;1736801;80;20958;-54
2021/08/17 07:17:59;;;;;;;11.35;3.87;;;;;;;26.78;49.45;99100.06;1742573;80;21117;-56
2021/08/17 07:20:27;;;;;;;7.10;3.52;;;;;;;26.88;49.18;99101.14;1676395;83;21085;-56
2021/08/17 07:22:55;;;;;;;3.98;2.60;;;;;;;26.96;48.96;99100.54;1730354;80;21093;-55
2021/08/17 07:25:23;;;;;;;8.00;3.50;;;;;;;27.05;48.65;99090.23;1739846;80;21074;-56
2021/08/17 07:27:50;;;;;;;3.55;2.95;;;;;;;27.15;47.93;99099.03;1734938;80;21242;-54
2021/08/17 07:30:16;;;;;;;8.78;3.75;;;;;;;27.25;48.24;99095.43;1737516;80;21085;-56
2021/08/17 07:32:45;;;;;;;6.28;3.72;;;;;;;27.35;48.53;99097.88;1744367;80;21534;-56
2021/08/17 07:35:12;;;;;;;3.35;2.37;;;;;;;27.44;47.80;99100.31;1751202;80;21089;-54
2021/08/17 07:37:41;;;;;;;9.00;2.90;;;;;;;27.58;47.28;99097.70;1737004;80;21095;-57
2021/08/17 07:40:08;;;;;;;11.90;3.20;;;;;;;27.68;45.87;99094.93;1703562;82;22323;-56
2021/08/17 07:42:35;;;;;;;8.60;2.52;;;;;;;27.78;46.19;99101.50;1724239;80;21049;-56
2021/08/17 07:45:02;;;;;;;9.18;2.90;;;;;;;27.87;45.73;99104.45;1732363;80;21136;-56
2021/08/17 07:47:28;;;;;;;4.80;2.50;;;;;;;27.96;45.54;99110.17;1738272;80;21160;-56
2021/08/17 07:49:55;;;;;;;12.43;2.98;;;;;;;28.06;45.22;99112.59;1674172;83;21141;-56
2021/08/17 07:52:21;;;;;;;4.60;2.42;;;;;;;28.13;44.43;99117.64;1732935;82;21073;-58
2021/08/17 07:54:48;;;;;;;3.77;2.72;;;;;;;28.18;44.33;99120.15;1728116;80;21757;-55
2021/08/17 07:57:14;;;;;;;7.37;2.15;;;;;;;28.24;44.66;99111.03;1734294;80;21085;-55
2021/08/17 07:59:42;;;;;;;10.08;3.42;;;;;;;28.31;44.30;99115.25;1729615;80;21025;-53
2021/08/17 08:02:09;;;;;;;11.70;3.55;;;;;;;28.40;44.19;99106.27;1732080;80;21173;-56
2021/08/17 08:04:35;;;;;;;6.87;2.83;;;;;;;28.45;43.63;99099.05;1728233;80;21046;-58
2021/08/17 08:07:01;;;;;;;6.83;3.35;;;;;;;28.51;43.15;99095.45;1733592;80;21457;-55
2021/08/17 08:09:28;;;;;;;3.52;2.80;;;;;;;28.57;43.51;99097.42;1726590;80;21046;-58
2021/08/17 08:11:54;;;;;;;11.00;3.15;;;;;;;28.65;44.21;99093.63;1718754;80;21149;-58
2021/08/17 08:14:20;;;;;;;7.55;3.05;;;;;;;28.73;43.06;99091.20;1728154;80;23323;-57
2021/08/17 08:16:47;;;;;;;5.08;3.85;;;;;;;28.80;43.42;99088.81;1719672;80;21161;-55
2021/08/17 08:19:15;;;;;;;3.22;2.65;;;;;;;28.87;42.91;99085.54;1716323;80;21104;-56
2021/08/17 08:21:41;;;;;;;4.33;2.98;;;;;;;28.96;43.11;99084.30;1720676;80;21458;-57
2021/08/17 08:24:08;;;;;;;8.95;3.12;;;;;;;29.06;42.81;99089.98;1722660;80;21666;-58
2021/08/17 08:26:34;;;;;;;5.03;2.98;;;;;;;29.14;42.15;99095.33;1715585;80;21106;-55
2021/08/17 08:29:00;;;;;;;8.55;2.98;;;;;;;29.21;42.48;99096.20;1721007;80;21078;-56
2021/08/17 08:31:27;;;;;;;5.53;3.05;;;;;;;29.27;42.40;99092.58;1728083;80;21089;-55
2021/08/17 08:33:53;;;;;;;2.58;2.33;;;;;;;29.35;42.37;99082.68;1722543;81;21054;-56
2021/08/17 08:36:20;;;;;;;5.20;2.40;;;;;;;29.44;42.76;99096.70;1724048;80;21058;-53
2021/08/17 08:38:46;;;;;;;3.90;2.35;;;;;;;29.52;42.04;99101.22;1723422;80;21066;-58
2021/08/17 08:41:16;;;;;;;4.47;2.33;;;;;;;29.57;41.79;99093.96;1728505;80;21559;-55
2021/08/17 08:43:40;;;;;;;3.60;2.20;;;;;;;29.64;42.05;99086.50;1724710;80;20997;-55
2021/08/17 08:46:07;;;;;;;4.05;2.10;;;;;;;29.73;42.62;99086.61;1672787;82;21002;-58
2021/08/17 08:48:33;;;;;;;4.22;1.85;;;;;;;29.81;42.64;99092.48;1724814;80;20974;-55
2021/08/17 08:51:00;;;;;;;4.78;1.67;;;;;;;29.89;41.78;99087.25;1722553;80;21381;-54
2021/08/17 08:53:26;;;;;;;6.35;1.85;;;;;;;29.96;41.57;99092.28;1724171;80;20944;-55
2021/08/17 08:55:53;;;;;;;3.37;1.72;;;;;;;30.04;40.92;99088.77;1720979;80;20912;-55
2021/08/17 08:58:19;;;;;;;6.75;2.00;;;;;;;30.11;40.58;99083.76;1724595;80;20930;-57
2021/08/17 09:00:45;;;;;;;3.47;1.60;;;;;;;30.17;40.24;99082.89;1674533;84;20978;-55
2021/08/17 09:03:12;;;;;;;8.35;2.58;;;;;;;30.21;40.44;99083.61;1675171;83;21092;-56
2021/08/17 09:05:52;;;;;;;4.85;1.62;;;;;;;30.27;40.20;99088.86;1676975;83;21364;-56
2021/08/17 09:08:29;;;;;;;4.83;1.90;;;;;;;30.32;40.20;99079.33;1677700;83;20902;-53
2021/08/17 09:11:20;;;;;;;3.77;1.98;;;;;;;30.40;39.80;99091.59;1679741;83;20937;-57
2021/08/17 09:13:47;;;;;;;3.10;1.30;;;;;;;30.45;39.81;99088.47;1671019;83;20981;-54
2021/08/17 09:16:25;;;;;;;6.85;1.45;;;;;;;30.53;39.54;99085.20;1682225;83;21065;-55
2021/08/17 09:18:52;;;;;;;4.58;1.95;;;;;;;30.60;39.38;99078.55;1704055;82;21973;-55
2021/08/17 09:21:39;;;;;;;10.15;1.92;;;;;;;30.67;39.48;99083.54;1680202;83;20999;-61
2021/08/17 09:24:26;;;;;;;5.60;1.50;;;;;;;30.74;38.94;99087.14;1669792;83;21135;-56
2021/08/17 09:26:57;;;;;;;7.45;1.62;;;;;;;30.78;38.09;99077.31;1677304;83;21040;-58
2021/08/17 09:29:32;;;;;;;8.75;1.90;;;;;;;30.82;37.39;99076.31;1698559;82;21099;-56
2021/08/17 09:32:18;;;;;;;6.67;2.00;;;;;;;30.85;37.72;99068.94;1678238;83;21120;-57
2021/08/17 09:34:49;;;;;;;6.67;2.12;;;;;;;30.89;37.88;99071.58;1693933;82;21053;-56
2021/08/17 09:37:17;;;;;;;3.80;1.60;;;;;;;30.92;37.09;99058.64;1706469;82;21551;-57
2021/08/17 09:39:51;;;;;;;8.60;2.62;;;;;;;30.94;37.22;99059.81;1683077;82;21522;-57
2021/08/17 09:42:23;;;;;;;6.12;2.25;;;;;;;30.96;37.13;99068.79;1694325;82;21154;-58
2021/08/17 09:45:15;;;;;;;4.17;2.30;;;;;;;30.97;37.53;99071.86;1681923;83;21477;-57
2021/08/17 09:47:49;;;;;;;10.15;1.98;;;;;;;30.97;37.71;99078.27;1668435;83;21179;-57
2021/08/17 09:50:26;;;;;;;4.92;2.22;;;;;;;30.99;37.21;99076.13;1679179;82;21088;-57
2021/08/17 09:53:17;;;;;;;4.65;2.10;;;;;;;30.99;37.07;99076.13;1681384;82;21089;-54
2021/08/17 09:55:55;;;;;;;4.67;2.00;;;;;;;30.98;37.21;99095.27;1629679;84;21908;-55
2021/08/17 09:58:33;;;;;;;4.30;2.27;;;;;;;30.91;36.97;99086.64;1697480;82;21076;-58
2021/08/17 10:01:07;;;;;;;4.97;2.27;;;;;;;30.83;37.19;99096.08;1681340;83;21076;-59
2021/08/17 10:03:34;;;;;;;3.65;1.45;;;;;;;30.74;37.25;99102.42;1677975;83;21524;-58
2021/08/17 10:06:00;;;;;;;3.50;1.90;;;;;;;30.69;37.60;99094.44;1696443;82;21736;-58
2021/08/17 10:08:29;;;;;;;3.22;1.30;;;;;;;30.64;37.60;99098.39;1694366;82;21103;-59
2021/08/17 10:10:58;;;;;;;7.22;2.10;;;;;;;30.58;38.18;99089.02;1694838;82;21041;-57
2021/08/17 10:13:32;;;;;;;4.62;2.00;;;;;;;30.54;38.16;99094.67;1703932;82;20917;-57
2021/08/17 10:15:55;;;;;;;5.15;2.10;;;;;;;30.50;38.19;99098.09;1698290;82;21092;-57
2021/08/17 10:18:25;;;;;;;2.30;2.08;;;;;;;30.45;38.93;99096.80;1677350;83;21133;-56
2021/08/17 10:20:54;;;;;;;7.20;1.50;;;;;;;30.47;39.45;99102.14;1680181;82;21700;-57
2021/08/17 10:23:22;;;;;;;4.30;1.65;;;;;;;30.52;39.77;99102.39;1686939;82;20954;-57
2021/08/17 10:25:54;;;;;;;3.27;1.75;;;;;;;30.58;38.90;99096.49;1681236;82;21089;-57
2021/08/17 10:28:41;;;;;;;10.30;1.27;;;;;;;30.63;39.02;99107.25;1679330;83;21186;-56
2021/08/17 10:31:19;;;;;;;2.17;1.27;;;;;;;30.66;38.66;99105.97;1682167;83;21380;-55
2021/08/17 10:33:55;;;;;;;3.08;1.17;;;;;;;30.63;37.79;99101.70;1672485;83;21097;-56
2021/08/17 10:36:36;;;;;;;7.03;1.67;;;;;;;30.64;37.59;99099.24;1679364;83;22171;-56
2021/08/17 10:39:19;;;;;;;3.47;1.90;;;;;;;30.64;37.59;99100.63;1669292;83;21088;-55
2021/08/17 10:41:50;;;;;;;6.05;0.93;;;;;;;30.66;37.35;99098.50;1695625;82;21369;-57
2021/08/17 10:44:32;;;;;;;6.87;1.62;;;;;;;30.71;37.20;99084.79;1696895;82;21044;-55
2021/08/17 10:47:04;;;;;;;4.25;1.05;;;;;;;30.79;37.27;99096.22;1702430;82;21114;-59
2021/08/17 10:49:37;;;;;;;2.80;0.90;;;;;;;30.85;36.52;99091.17;1680472;83;21158;-55
2021/08/17 10:52:08;;;;;;;6.87;1.82;;;;;;;30.93;36.18;99091.45;1682013;83;21151;-57
2021/08/17 10:54:35;;;;;;;4.28;1.00;;;;;;;30.97;36.71;99093.55;1681554;83;21095;-54
2021/08/17 10:57:19;;;;;;;1.55;0.95;;;;;;;31.04;36.38;99090.23;1699335;82;21140;-56
2021/08/17 10:59:50;;;;;;;1.85;1.00;;;;;;;31.11;36.54;99089.69;1685032;83;21094;-53
2021/08/17 11:02:22;;;;;;;7.45;0.90;;;;;;;31.18;36.30;99082.16;1676676;83;21656;-56
2021/08/17 11:04:49;;;;;;;9.28;1.10;;;;;;;31.24;36.16;99089.28;1656580;83;21094;-53
2021/08/17 11:07:31;;;;;;;10.23;1.10;;;;;;;31.29;35.98;99082.00;1724174;81;21023;-59
2021/08/17 11:10:01;;;;;;;3.85;1.00;;;;;;;31.33;35.40;99074.89;1714064;81;21518;-54
2021/08/17 11:12:36;;;;;;;2.08;1.00;;;;;;;31.39;35.61;99072.60;1710534;81;21115;-56
2021/08/17 11:15:09;;;;;;;5.22;1.02;;;;;;;31.45;35.51;99071.73;1710395;81;20943;-54
2021/08/17 11:17:37;;;;;;;5.17;1.20;;;;;;;31.49;35.23;99063.23;1717962;81;21006;-56
2021/08/17 11:20:06;;;;;;;3.05;1.00;;;;;;;31.53;34.72;99070.60;1710363;81;21040;-59
2021/08/17 11:22:39;;;;;;;9.23;1.20;;;;;;;31.58;35.00;99069.38;1664569;84;21057;-57
2021/08/17 11:25:08;;;;;;;5.72;1.10;;;;;;;31.63;35.06;99074.31;1713141;81;21134;-53
2021/08/17 11:27:39;;;;;;;2.40;0.90;;;;;;;31.66;34.48;99072.45;1714096;81;21387;-59
2021/08/17 11:30:09;;;;;;;6.40;1.35;;;;;;;31.67;33.73;99062.48;1709845;81;21532;-53
2021/08/17 11:32:43;;;;;;;2.37;1.30;;;;;;;31.69;34.34;99063.13;1711087;81;20927;-55
2021/08/17 11:35:15;;;;;;;9.33;1.32;;;;;;;31.71;34.12;99060.97;1716512;81;20975;-58
2021/08/17 11:37:44;;;;;;;3.77;0.93;;;;;;;31.72;33.82;99055.73;1713631;81;21106;-58